Time;durP1;ratioP1;P1;durP2;ratioP2;P2;SDS_P1;SDS_P2;PMS_P1;PMS_P2;Temp;Humidity;BMP_temperature;BMP_pressure;BME280_temperature;BME280_humidity;BME280_pressure;Samples;Min_cycle;Max_cycle;Signal;HPM_P1;HPM_P2
2020/12/18 00:05:42;;;;;;;159.05;72.55;;;;;;;0.96;91.75;99981.61;4486742;78;21102;-85
2020/12/18 00:11:44;;;;;;;163.47;74.53;;;;;;;0.95;91.77;99984.87;4486435;78;21673;-85
2020/12/18 00:17:45;;;;;;;152.75;72.87;;;;;;;1.03;91.78;99979.38;4485771;78;21089;-86
2020/12/18 00:23:47;;;;;;;147.72;72.20;;;;;;;0.98;91.47;99981.59;4496516;79;21168;-86
2020/12/18 00:29:49;;;;;;;141.80;70.47;;;;;;;0.74;91.27;99968.66;4495348;78;21640;-85
2020/12/18 00:35:50;;;;;;;154.38;70.78;;;;;;;0.81;91.29;99985.30;4491639;78;21153;-86
2020/12/18 00:41:54;;;;;;;157.80;73.52;;;;;;;0.75;91.39;99970.25;4489919;79;21121;-85
2020/12/18 00:47:56;;;;;;;141.10;69.00;;;;;;;0.77;91.34;99989.64;4495523;77;21183;-86
2020/12/18 00:54:00;;;;;;;122.33;58.17;;;;;;;0.85;91.81;99993.59;4490637;78;21132;-86
2020/12/18 01:00:04;;;;;;;115.77;52.85;;;;;;;0.79;91.94;99984.78;4492795;78;21156;-87
2020/12/18 01:06:12;;;;;;;125.27;56.88;;;;;;;0.79;91.94;99984.78;4487252;79;21152;-87
2020/12/18 01:12:16;;;;;;;102.27;50.12;;;;;;;1.02;91.81;99998.78;4490158;79;21137;-86
2020/12/18 01:18:17;;;;;;;102.12;49.70;;;;;;;1.10;92.00;100003.55;4479688;78;21566;-86
2020/12/18 01:24:21;;;;;;;88.87;44.88;;;;;;;1.15;91.99;100004.84;4485361;79;21144;-86
2020/12/18 01:30:24;;;;;;;88.45;44.15;;;;;;;1.27;92.01;100006.56;4487519;77;21120;-86
2020/12/18 01:36:26;;;;;;;102.07;47.58;;;;;;;1.32;92.03;99993.55;4496480;78;21110;-86
2020/12/18 01:42:29;;;;;;;118.13;55.67;;;;;;;1.34;91.90;100007.56;4491733;77;21133;-85
2020/12/18 01:48:42;;;;;;;108.07;50.05;;;;;;;1.39;91.91;100012.33;4476238;79;21598;-85
2020/12/18 01:54:44;;;;;;;116.15;54.25;;;;;;;1.47;92.07;100003.59;4478511;79;21141;-85
2020/12/18 02:00:48;;;;;;;121.92;57.65;;;;;;;1.52;91.75;100003.52;4493596;78;21627;-87
2020/12/18 02:06:55;;;;;;;86.97;39.83;;;;;;;1.41;91.62;100002.59;4478719;79;21156;-87
2020/12/18 02:12:59;;;;;;;85.72;40.78;;;;;;;1.38;91.75;99998.59;4490051;78;21148;-85
2020/12/18 02:19:01;;;;;;;108.27;51.80;;;;;;;1.46;91.82;99993.90;4487821;78;21105;-86
2020/12/18 02:25:07;;;;;;;109.50;53.28;;;;;;;1.53;91.70;99996.24;4492845;78;21164;-86
2020/12/18 02:31:10;;;;;;;113.40;53.17;;;;;;;1.58;91.69;99995.61;4491883;79;21164;-86
2020/12/18 02:37:16;;;;;;;103.55;50.00;;;;;;;1.55;91.52;99998.11;4477579;78;21606;-85
2020/12/18 02:43:17;;;;;;;112.70;56.40;;;;;;;1.55;91.58;99994.06;4488300;78;21375;-86
2020/12/18 02:49:19;;;;;;;126.22;57.17;;;;;;;1.53;91.54;100007.03;4479756;78;21139;-86
2020/12/18 02:55:22;;;;;;;111.57;54.53;;;;;;;1.55;91.63;100002.16;4490304;79;21124;-85
2020/12/18 03:01:46;;;;;;;118.10;57.30;;;;;;;1.67;91.61;100007.09;4392588;79;22953;-86
2020/12/18 03:07:48;;;;;;;127.07;58.90;;;;;;;1.74;91.77;99995.41;4330551;81;21613;-86
2020/12/18 03:13:50;;;;;;;121.45;56.60;;;;;;;1.77;91.61;99995.59;4339583;80;21165;-86
2020/12/18 03:19:54;;;;;;;105.63;50.35;;;;;;;1.77;91.63;99999.64;4340872;81;21606;-86
2020/12/18 03:26:00;;;;;;;127.35;60.35;;;;;;;1.78;91.61;100009.37;4342419;80;21896;-86
2020/12/18 03:32:06;;;;;;;119.47;57.03;;;;;;;1.79;91.47;100009.61;4175967;83;21196;-86
2020/12/18 03:38:08;;;;;;;119.60;58.28;;;;;;;1.89;91.70;100010.83;4196628;84;21340;-86
2020/12/18 03:44:11;;;;;;;111.55;55.73;;;;;;;1.85;91.65;100011.70;4192453;83;21173;-86
2020/12/18 03:50:13;;;;;;;116.22;56.88;;;;;;;1.86;91.35;100018.16;4231640;82;21308;-86
2020/12/18 03:56:18;;;;;;;104.90;52.65;;;;;;;1.93;91.54;100019.14;4268991;83;21151;-85
2020/12/18 04:02:39;;;;;;;108.80;51.98;;;;;;;1.89;91.48;100017.58;4279358;81;21191;-86
2020/12/18 04:08:41;;;;;;;100.92;51.58;;;;;;;1.90;91.65;100017.00;4218691;83;21346;-86
2020/12/18 04:14:57;;;;;;;108.30;51.80;;;;;;;2.00;91.53;100020.37;4479606;77;22926;-86
2020/12/18 04:21:00;;;;;;;108.57;54.20;;;;;;;1.95;91.45;100022.33;4404133;78;21323;-87
2020/12/18 04:27:06;;;;;;;108.40;50.40;;;;;;;1.96;91.60;100023.39;4411057;78;21158;-85
2020/12/18 04:33:08;;;;;;;106.05;50.83;;;;;;;2.00;91.50;100022.27;4425656;78;21137;-86
2020/12/18 04:39:09;;;;;;;102.27;50.43;;;;;;;2.08;91.48;100030.52;4423056;78;21643;-87
2020/12/18 04:45:13;;;;;;;101.70;50.60;;;;;;;2.13;91.57;100040.43;4434454;78;21761;-85
2020/12/18 04:51:54;;;;;;;102.72;46.95;;;;;;;2.12;91.36;100047.72;4433285;78;21293;-86
2020/12/18 04:58:03;;;;;;;93.40;47.73;;;;;;;2.09;91.31;100040.75;4423144;78;21319;-86
2020/12/18 05:04:07;;;;;;;96.25;47.27;;;;;;;2.16;91.37;100052.00;4395534;78;21153;-85
2020/12/18 05:10:10;;;;;;;98.62;47.15;;;;;;;2.20;91.40;100055.70;4436340;78;21268;-86
2020/12/18 05:16:23;;;;;;;91.95;44.05;;;;;;;2.22;91.39;100064.33;4430485;78;21129;-86
2020/12/18 05:22:54;;;;;;;81.28;39.18;;;;;;;2.30;91.34;100060.39;4594705;76;23284;-87
2020/12/18 05:29:06;;;;;;;73.92;36.85;;;;;;;2.31;91.37;100070.66;4489872;77;21190;-85
2020/12/18 05:35:10;;;;;;;72.37;35.00;;;;;;;2.34;91.49;100066.82;4488092;78;21589;-86
2020/12/18 05:41:26;;;;;;;69.27;33.38;;;;;;;2.47;91.48;100080.94;4434765;78;22279;-85
2020/12/18 05:47:29;;;;;;;68.80;32.25;;;;;;;2.45;91.43;100088.53;4390691;79;21176;-87
2020/12/18 05:53:30;;;;;;;65.30;31.60;;;;;;;2.47;91.49;100088.23;4379013;79;21163;-86
2020/12/18 05:59:45;;;;;;;64.92;31.37;;;;;;;2.52;91.46;100086.23;4386012;79;21169;-86
2020/12/18 06:05:53;;;;;;;66.87;31.50;;;;;;;2.55;91.51;100090.27;4388680;79;21426;-87
2020/12/18 06:12:09;;;;;;;65.10;31.25;;;;;;;2.59;91.60;100105.59;4392127;79;22930;-86
2020/12/18 06:18:16;;;;;;;64.33;30.80;;;;;;;2.52;91.54;100094.92;4322404;80;21140;-86
2020/12/18 06:24:19;;;;;;;63.68;31.80;;;;;;;2.55;91.67;100111.33;4320145;80;21159;-87
2020/12/18 06:30:41;;;;;;;72.08;31.85;;;;;;;2.60;91.69;100113.95;4322622;81;21481;-86
2020/12/18 06:37:01;;;;;;;69.00;33.55;;;;;;;2.57;91.66;100107.00;4330621;80;21595;-87
2020/12/18 06:43:37;;;;;;;72.03;35.88;;;;;;;2.58;91.73;100112.66;4327952;81;21150;-87
2020/12/18 06:50:11;;;;;;;69.80;33.33;;;;;;;2.57;91.79;100113.77;4598057;76;22910;-86
2020/12/18 06:56:27;;;;;;;77.42;37.45;;;;;;;2.56;91.78;100121.06;4310431;81;21596;-86
2020/12/18 07:02:48;;;;;;;84.52;38.73;;;;;;;2.60;91.85;100122.06;4358182;81;21339;-86
2020/12/18 07:08:51;;;;;;;77.47;36.83;;;;;;;2.63;91.85;100128.22;4349410;80;21190;-87
2020/12/18 07:14:53;;;;;;;69.10;33.70;;;;;;;2.65;91.75;100131.98;4348637;80;21167;-86
2020/12/18 07:21:00;;;;;;;71.65;34.50;;;;;;;2.67;91.75;100131.96;4350409;81;21656;-87
2020/12/18 07:27:02;;;;;;;75.97;35.45;;;;;;;2.68;91.93;100139.50;4349940;80;21206;-87
2020/12/18 07:33:05;;;;;;;71.85;33.45;;;;;;;2.74;91.94;100142.41;4345013;80;21618;-86
2020/12/18 07:39:10;;;;;;;71.35;35.15;;;;;;;2.77;91.93;100148.00;4349837;81;21157;-87
2020/12/18 07:45:11;;;;;;;78.35;35.65;;;;;;;2.83;91.84;100152.78;4345002;81;21487;-86
2020/12/18 07:51:19;;;;;;;92.10;43.85;;;;;;;2.84;91.99;100151.14;4347788;80;21193;-87
2020/12/18 07:57:20;;;;;;;94.17;42.98;;;;;;;2.83;92.00;100156.30;4346259;80;21174;-87
2020/12/18 08:03:21;;;;;;;83.00;37.23;;;;;;;2.88;91.95;100158.90;4353555;80;21160;-87
2020/12/18 08:09:25;;;;;;;78.37;35.83;;;;;;;2.95;91.87;100161.23;4347837;80;21185;-86
2020/12/18 08:15:27;;;;;;;81.02;37.33;;;;;;;2.95;91.84;100172.86;4342520;80;21165;-86
2020/12/18 08:21:37;;;;;;;64.95;33.42;;;;;;;2.93;91.84;100177.75;4339903;80;21174;-87
2020/12/18 08:27:51;;;;;;;69.45;35.30;;;;;;;2.97;91.85;100177.97;4346100;81;21182;-87
2020/12/18 08:33:54;;;;;;;82.37;38.23;;;;;;;3.00;91.91;100176.84;4357629;80;21144;-87
2020/12/18 08:39:56;;;;;;;81.30;37.25;;;;;;;3.08;92.00;100181.57;4347641;80;21157;-87
2020/12/18 08:45:58;;;;;;;78.70;33.73;;;;;;;3.11;91.80;100181.52;4357835;80;21145;-86
2020/12/18 08:52:04;;;;;;;83.07;35.28;;;;;;;3.17;92.02;100191.14;4385659;81;21201;-87
2020/12/18 08:58:11;;;;;;;79.30;35.60;;;;;;;3.36;92.14;100196.48;4405559;79;21169;-87
2020/12/18 09:04:15;;;;;;;77.75;35.75;;;;;;;3.49;91.90;100193.00;4384076;80;21155;-86
2020/12/18 09:10:33;;;;;;;71.80;35.17;;;;;;;3.57;91.89;100195.80;4389271;80;21198;-86
2020/12/18 09:16:35;;;;;;;75.00;35.48;;;;;;;3.69;91.72;100195.32;4377506;80;21158;-87
2020/12/18 09:22:57;;;;;;;75.90;36.08;;;;;;;3.77;91.51;100191.91;4386227;80;21198;-87
2020/12/18 09:28:59;;;;;;;70.87;34.25;;;;;;;3.86;91.53;100203.10;4385817;80;21133;-87
2020/12/18 09:35:01;;;;;;;69.72;34.23;;;;;;;3.87;91.39;100199.85;4389886;80;21181;-86
2020/12/18 09:41:12;;;;;;;75.72;34.88;;;;;;;3.96;91.43;100203.45;4390656;80;21218;-87
2020/12/18 09:47:13;;;;;;;77.55;37.67;;;;;;;4.07;91.30;100206.98;4360190;80;21122;-87
2020/12/18 09:53:15;;;;;;;80.77;39.27;;;;;;;4.15;91.22;100195.44;4284972;81;21166;-86
2020/12/18 09:59:16;;;;;;;79.47;41.73;;;;;;;4.11;90.97;100194.45;4279262;81;21187;-87
2020/12/18 10:05:18;;;;;;;92.50;44.93;;;;;;;4.19;91.10;100194.28;4281295;82;21827;-87
2020/12/18 10:11:28;;;;;;;98.58;47.20;;;;;;;4.33;91.14;100200.48;4286987;81;21176;-86
2020/12/18 10:17:29;;;;;;;91.00;43.15;;;;;;;4.42;90.91;100194.03;4282719;81;21970;-87
2020/12/18 10:23:31;;;;;;;97.40;47.08;;;;;;;4.51;91.03;100196.83;4396161;79;21148;-88
2020/12/18 10:29:33;;;;;;;95.42;46.68;;;;;;;4.57;90.53;100196.96;4444438;78;21161;-88
2020/12/18 10:35:35;;;;;;;84.30;42.10;;;;;;;4.58;90.49;100206.69;4443636;78;21863;-88
2020/12/18 10:41:38;;;;;;;78.85;39.75;;;;;;;4.61;90.68;100202.00;4427875;78;21614;-89
2020/12/18 10:47:40;;;;;;;78.97;42.35;;;;;;;4.71;90.75;100201.20;4439254;78;21179;-87
2020/12/18 10:53:41;;;;;;;100.85;49.65;;;;;;;4.85;90.61;100207.38;4425523;79;21165;-88
2020/12/18 10:59:43;;;;;;;88.42;45.20;;;;;;;4.97;90.34;100197.88;4423182;79;21270;-88
2020/12/18 11:05:44;;;;;;;90.80;43.75;;;;;;;5.04;90.37;100203.15;4431214;79;21133;-88
2020/12/18 11:11:52;;;;;;;76.00;40.48;;;;;;;5.10;90.25;100202.45;4447569;78;21622;-88
2020/12/18 11:17:56;;;;;;;83.78;44.53;;;;;;;5.19;90.08;100195.97;4417084;78;21298;-88
2020/12/18 11:23:58;;;;;;;91.10;44.27;;;;;;;5.32;90.02;100195.09;4447351;78;21161;-89
2020/12/18 11:29:59;;;;;;;95.95;45.48;;;;;;;5.34;89.64;100186.64;4445682;78;21157;-89
2020/12/18 11:36:02;;;;;;;85.35;44.50;;;;;;;5.36;89.70;100193.34;4450354;78;21113;-87
2020/12/18 11:42:11;;;;;;;87.80;45.48;;;;;;;5.40;89.51;100192.17;4449428;78;21192;-92
2020/12/18 11:48:13;;;;;;;91.02;46.00;;;;;;;5.40;89.47;100191.62;4442555;78;21572;-86
2020/12/18 11:54:15;;;;;;;85.47;44.10;;;;;;;5.41;89.56;100191.86;4437412;78;21133;-86
2020/12/18 12:00:20;;;;;;;91.92;45.63;;;;;;;5.38;89.10;100188.41;4437408;78;21657;-86
2020/12/18 12:06:22;;;;;;;101.95;51.18;;;;;;;5.38;89.37;100190.32;4417263;78;21146;-87
2020/12/18 12:12:23;;;;;;;95.85;50.58;;;;;;;5.40;89.38;100192.17;4428728;79;21161;-87
2020/12/18 12:18:25;;;;;;;88.70;48.13;;;;;;;5.46;89.39;100189.02;4410146;78;21165;-87
2020/12/18 12:24:26;;;;;;;95.53;50.88;;;;;;;5.52;89.30;100189.13;4457197;78;21153;-87
2020/12/18 12:30:28;;;;;;;93.60;49.20;;;;;;;5.58;89.19;100189.22;4441656;78;21569;-86
2020/12/18 12:36:29;;;;;;;98.90;51.20;;;;;;;5.56;89.01;100185.23;4428199;78;21283;-86
2020/12/18 12:42:33;;;;;;;93.80;50.00;;;;;;;5.53;89.18;100177.71;4446822;78;21319;-86
2020/12/18 12:48:43;;;;;;;91.92;49.65;;;;;;;5.51;89.07;100179.93;4421003;78;21607;-86
2020/12/18 12:54:45;;;;;;;84.03;46.88;;;;;;;5.60;89.15;100174.78;4434059;79;21121;-86
2020/12/18 13:00:46;;;;;;;83.62;45.08;;;;;;;5.65;88.94;100176.00;4440409;79;21169;-86
2020/12/18 13:06:48;;;;;;;88.67;45.12;;;;;;;5.64;88.90;100169.50;4436542;78;21149;-86
2020/12/18 13:12:50;;;;;;;82.92;44.95;;;;;;;5.56;88.89;100171.66;4442924;79;21479;-87
2020/12/18 13:18:52;;;;;;;85.87;45.70;;;;;;;5.59;88.79;100173.16;4436044;78;21154;-87
2020/12/18 13:24:54;;;;;;;91.12;49.18;;;;;;;5.70;88.95;100175.84;4431270;79;21205;-87
2020/12/18 13:30:55;;;;;;;84.37;45.78;;;;;;;5.74;88.64;100175.47;4430504;79;21555;-87
2020/12/18 13:36:57;;;;;;;93.33;47.98;;;;;;;5.66;88.59;100170.80;4438298;78;21149;-87
2020/12/18 13:42:58;;;;;;;94.75;48.83;;;;;;;5.67;88.61;100168.91;4441136;78;21192;-87
2020/12/18 13:49:00;;;;;;;88.70;49.42;;;;;;;5.71;88.45;100172.58;4427289;79;21177;-88
2020/12/18 13:55:02;;;;;;;88.17;46.75;;;;;;;5.63;88.34;100167.91;4427962;79;21157;-87
2020/12/18 14:01:04;;;;;;;95.42;49.75;;;;;;;5.50;88.23;100171.52;4424423;80;21582;-86
2020/12/18 14:07:06;;;;;;;97.37;50.38;;;;;;;5.31;88.33;100175.05;4426478;79;21112;-87
2020/12/18 14:13:08;;;;;;;98.07;52.73;;;;;;;5.22;88.50;100188.56;4420752;79;21149;-87
2020/12/18 14:19:09;;;;;;;107.45;56.20;;;;;;;5.28;88.50;100185.95;4429101;79;21144;-86
2020/12/18 14:25:19;;;;;;;108.97;56.45;;;;;;;5.25;88.32;100182.50;4426739;79;21528;-87
2020/12/18 14:31:20;;;;;;;107.32;55.52;;;;;;;5.16;88.26;100191.16;4429336;79;21573;-87
2020/12/18 14:37:22;;;;;;;111.68;59.90;;;;;;;5.07;88.17;100185.44;4427848;79;21156;-87
2020/12/18 14:43:29;;;;;;;114.15;58.52;;;;;;;4.80;88.21;100173.61;4428483;80;21116;-86
2020/12/18 14:49:26;;;;;;;111.40;59.15;;;;;;;4.66;87.96;100179.66;4428857;79;21125;-87
2020/12/18 14:55:29;;;;;;;112.45;58.60;;;;;;;4.39;87.88;100170.24;4430100;79;21173;-87
2020/12/18 15:01:32;;;;;;;114.55;57.88;;;;;;;4.01;87.81;100165.42;4422803;79;21125;-87
2020/12/18 15:07:33;;;;;;;131.07;63.58;;;;;;;3.74;87.86;100168.95;4428746;79;21121;-87
2020/12/18 15:13:35;;;;;;;136.65;68.72;;;;;;;3.43;87.91;100165.78;4424527;79;21593;-87
2020/12/18 15:19:38;;;;;;;135.82;67.78;;;;;;;3.15;88.27;100167.63;4430132;79;21129;-87
2020/12/18 15:25:39;;;;;;;148.35;74.60;;;;;;;2.91;87.84;100182.64;4428947;79;21117;-86
2020/12/18 15:31:41;;;;;;;146.70;75.28;;;;;;;2.64;87.97;100191.22;4425745;79;21172;-87
2020/12/18 15:37:43;;;;;;;138.35;70.67;;;;;;;2.42;88.00;100195.06;4431509;79;22312;-86
2020/12/18 15:43:45;;;;;;;154.90;78.15;;;;;;;2.21;88.20;100192.41;4428872;79;21145;-88
2020/12/18 15:49:47;;;;;;;155.18;79.90;;;;;;;2.09;88.66;100190.12;4423654;79;21205;-88
2020/12/18 15:55:48;;;;;;;192.25;94.07;;;;;;;2.04;88.57;100189.36;4416708;79;21192;-85
2020/12/18 16:01:50;;;;;;;181.07;90.32;;;;;;;1.88;88.54;100200.91;4415358;79;21153;-86
2020/12/18 16:07:51;;;;;;;156.95;78.47;;;;;;;1.84;88.52;100190.98;4417942;79;21157;-88
2020/12/18 16:13:53;;;;;;;138.65;68.40;;;;;;;1.64;88.29;100189.34;4414981;79;21113;-87
2020/12/18 16:19:54;;;;;;;156.15;75.83;;;;;;;1.37;87.87;100189.09;4414875;79;21145;-86
2020/12/18 16:25:56;;;;;;;158.97;81.95;;;;;;;1.26;88.50;100188.39;4416747;79;21153;-87
2020/12/18 16:32:04;;;;;;;153.20;77.35;;;;;;;1.19;88.65;100185.21;4415306;80;21582;-86
2020/12/18 16:38:06;;;;;;;145.47;74.50;;;;;;;1.00;88.04;100197.01;4416889;79;21428;-87
2020/12/18 16:44:07;;;;;;;142.77;73.72;;;;;;;0.83;88.54;100194.70;4417464;79;21155;-86
2020/12/18 16:50:09;;;;;;;161.55;83.40;;;;;;;0.69;88.02;100197.78;4425454;78;21593;-87
2020/12/18 16:56:17;;;;;;;153.80;76.50;;;;;;;0.51;88.56;100194.95;4439588;79;21166;-88
2020/12/18 17:02:18;;;;;;;137.85;70.55;;;;;;;0.44;88.22;100196.61;4428940;78;21177;-86
2020/12/18 17:08:20;;;;;;;142.20;71.50;;;;;;;0.21;88.33;100200.00;4436326;79;21133;-86
2020/12/18 17:14:21;;;;;;;153.55;77.22;;;;;;;0.15;88.15;100202.99;4432790;79;21158;-86
2020/12/18 17:20:23;;;;;;;162.75;80.20;;;;;;;0.00;88.27;100207.38;4438364;78;21571;-87
2020/12/18 17:26:28;;;;;;;173.95;86.78;;;;;;;-0.17;88.61;100209.60;4435186;79;21142;-85
2020/12/18 17:32:29;;;;;;;173.93;91.65;;;;;;;-0.13;88.52;100208.52;4438372;78;22273;-86
2020/12/18 17:45:18;;;;;;;188.32;91.67;;;;;;;-0.22;88.54;100215.56;4425495;78;21173;-85
2020/12/18 17:51:20;;;;;;;160.32;82.05;;;;;;;-0.30;88.67;100221.50;4434419;79;21562;-86
2020/12/18 17:57:21;;;;;;;194.02;98.12;;;;;;;-0.29;88.70;100218.54;4428302;79;21357;-86
2020/12/18 18:03:23;;;;;;;191.87;97.43;;;;;;;-0.37;88.52;100219.63;4439573;78;21161;-87
2020/12/18 18:09:24;;;;;;;205.70;95.20;;;;;;;-0.49;88.33;100211.88;4414259;79;21166;-86
2020/12/18 18:15:26;;;;;;;203.00;100.35;;;;;;;-0.65;88.01;100212.17;4448432;79;21110;-86
2020/12/18 18:21:27;;;;;;;181.50;87.30;;;;;;;-0.81;88.23;100212.73;4437340;79;21134;-85
2020/12/18 18:27:31;;;;;;;213.50;97.87;;;;;;;-0.83;88.87;100203.34;4442230;79;21666;-86
2020/12/18 18:33:33;;;;;;;259.47;109.33;;;;;;;-0.70;90.01;100215.68;4440587;78;21598;-85
2020/12/18 18:39:35;;;;;;;300.90;127.33;;;;;;;-0.62;89.12;100217.00;4443051;79;21148;-85
2020/12/18 18:45:38;;;;;;;382.27;162.70;;;;;;;-0.74;89.05;100217.31;4433317;78;22089;-86
2020/12/18 18:51:39;;;;;;;343.93;147.20;;;;;;;-0.76;89.16;100221.33;4446029;78;21152;-85
2020/12/18 18:57:41;;;;;;;339.57;155.23;;;;;;;-0.88;89.30;100233.73;4441922;79;21173;-87
2020/12/18 19:03:42;;;;;;;313.37;150.57;;;;;;;-0.88;89.55;100235.08;4321404;78;10000094;-86
2020/12/18 19:09:44;;;;;;;323.13;155.13;;;;;;;-0.92;89.24;100241.23;4449637;78;21200;-86
2020/12/18 19:15:46;;;;;;;335.33;162.87;;;;;;;-0.94;89.27;100234.00;4444932;78;21218;-86
2020/12/18 19:21:49;;;;;;;346.77;162.43;;;;;;;-0.86;89.79;100231.55;4446202;78;21169;-86
2020/12/18 19:27:51;;;;;;;312.20;148.73;;;;;;;-0.80;89.62;100233.16;4442037;78;21152;-85
2020/12/18 19:33:53;;;;;;;337.53;154.70;;;;;;;-0.88;89.66;100242.33;4442986;78;21129;-85
2020/12/18 19:39:54;;;;;;;288.53;138.90;;;;;;;-0.73;89.87;100241.77;4447828;78;21726;-85
2020/12/18 19:45:56;;;;;;;271.27;130.47;;;;;;;-0.79;89.56;100238.82;4451858;78;21598;-87
2020/12/18 19:51:57;;;;;;;283.97;138.67;;;;;;;-0.89;89.33;100239.38;4433444;78;21369;-88
2020/12/18 19:57:59;;;;;;;287.48;135.80;;;;;;;-0.82;90.31;100238.55;4424061;80;21747;-87
2020/12/18 20:04:01;;;;;;;298.47;134.77;;;;;;;-0.76;89.79;100232.08;4428313;80;21168;-88
2020/12/18 20:10:06;;;;;;;289.20;133.67;;;;;;;-0.83;89.73;100225.63;4424549;79;21145;-87
2020/12/18 20:16:08;;;;;;;188.53;84.33;;;;;;;-0.79;90.22;100221.88;4423289;79;21200;-86
2020/12/18 20:22:10;;;;;;;251.10;106.77;;;;;;;-0.68;90.44;100220.25;4424090;79;21176;-87
2020/12/18 20:28:11;;;;;;;217.37;100.00;;;;;;;-0.68;89.92;100217.56;4425869;79;21189;-87
2020/12/18 20:34:13;;;;;;;211.18;96.82;;;;;;;-0.66;90.37;100208.66;4423895;79;21141;-86
2020/12/18 20:40:15;;;;;;;224.53;100.30;;;;;;;-0.70;90.36;100208.14;4426180;79;21132;-87
2020/12/18 20:46:16;;;;;;;231.97;97.90;;;;;;;-0.73;90.15;100204.66;4424356;79;21145;-86
2020/12/18 20:52:18;;;;;;;216.10;93.87;;;;;;;-0.63;90.80;100205.98;4430743;79;21161;-87
2020/12/18 20:58:19;;;;;;;220.83;99.60;;;;;;;-0.62;90.78;100208.94;4431002;78;21172;-88
2020/12/18 21:04:21;;;;;;;207.83;88.80;;;;;;;-0.67;90.66;100204.91;4426336;79;21132;-87
2020/12/18 21:10:25;;;;;;;193.90;84.37;;;;;;;-0.73;90.20;100197.93;4428673;79;21132;-88
2020/12/18 21:16:26;;;;;;;170.40;80.70;;;;;;;-0.97;90.32;100201.73;4429509;78;21142;-87
2020/12/18 21:22:28;;;;;;;201.80;85.70;;;;;;;-0.89;90.81;100198.50;4436478;79;21149;-88
2020/12/18 21:28:29;;;;;;;189.67;85.17;;;;;;;-0.90;90.26;100190.17;4433275;79;21145;-87
2020/12/18 21:34:31;;;;;;;200.20;87.12;;;;;;;-0.94;90.76;100193.12;4431276;79;21190;-85
2020/12/18 21:40:35;;;;;;;219.43;88.57;;;;;;;-0.83;90.93;100195.28;4430575;79;21582;-86
2020/12/18 21:46:36;;;;;;;215.47;87.10;;;;;;;-0.74;91.11;100190.42;4431276;79;21474;-85
2020/12/18 21:52:39;;;;;;;191.70;87.40;;;;;;;-0.73;90.75;100189.33;4414728;79;21594;-86
2020/12/18 21:58:42;;;;;;;224.43;97.13;;;;;;;-0.87;90.54;100195.53;4413180;79;21547;-86
2020/12/18 22:04:44;;;;;;;241.03;99.30;;;;;;;-0.95;90.87;100193.39;4413361;79;21503;-85
2020/12/18 22:10:49;;;;;;;207.90;92.63;;;;;;;-0.86;91.22;100191.23;4415267;79;21566;-85
2020/12/18 22:16:50;;;;;;;203.47;91.20;;;;;;;-0.76;91.28;100181.81;4415715;79;21106;-86
2020/12/18 22:22:52;;;;;;;217.97;93.60;;;;;;;-0.69;91.28;100175.59;4413141;79;21149;-86
2020/12/18 22:28:53;;;;;;;200.38;88.67;;;;;;;-0.82;90.82;100175.38;4411318;79;21156;-85
2020/12/18 22:34:55;;;;;;;205.13;88.50;;;;;;;-0.82;90.75;100170.81;4416891;80;21434;-87
2020/12/18 22:40:56;;;;;;;219.87;92.20;;;;;;;-1.06;90.73;100172.45;4414735;79;21161;-85
2020/12/18 22:47:00;;;;;;;203.97;86.60;;;;;;;-1.03;91.08;100177.28;4419301;79;21578;-85
2020/12/18 22:53:02;;;;;;;215.87;91.43;;;;;;;-1.03;90.82;100192.06;4423891;79;21543;-86
2020/12/18 22:59:03;;;;;;;141.67;69.40;;;;;;;-1.08;90.83;100190.72;4432636;78;21176;-86
2020/12/18 23:05:06;;;;;;;166.67;76.83;;;;;;;-1.08;90.69;100183.21;4437439;78;21121;-87
2020/12/18 23:11:10;;;;;;;188.93;81.00;;;;;;;-1.19;90.80;100185.08;4426275;79;21121;-86
2020/12/18 23:17:11;;;;;;;235.80;90.73;;;;;;;-1.27;90.85;100182.95;4433936;79;21213;-86
2020/12/18 23:23:13;;;;;;;201.45;80.60;;;;;;;-1.36;90.54;100191.81;4435704;78;21149;-87
2020/12/18 23:29:15;;;;;;;220.57;86.60;;;;;;;-1.48;90.66;100182.66;4427046;79;21118;-87
2020/12/18 23:35:16;;;;;;;223.27;91.40;;;;;;;-1.79;91.00;100169.75;4434388;79;21587;-86
2020/12/18 23:41:18;;;;;;;213.33;87.57;;;;;;;-1.70;91.35;100176.20;4435686;79;21134;-86
2020/12/18 23:47:20;;;;;;;210.73;85.90;;;;;;;-1.46;91.44;100181.05;4426541;79;21161;-86
2020/12/18 23:53:21;;;;;;;207.63;82.57;;;;;;;-1.31;91.50;100185.89;4439631;78;21594;-86
2020/12/18 23:59:23;;;;;;;200.13;78.10;;;;;;;-1.50;90.57;100176.75;4451938;78;21122;-86
